createdAt,value
2022-10-28T00:01:36.526Z,20.60
2022-10-28T00:04:07.758Z,21.80
2022-10-28T00:06:37.105Z,20.90
2022-10-28T00:09:09.678Z,19.20
2022-10-28T00:11:40.721Z,20.00
2022-10-28T00:14:13.687Z,19.60
2022-10-28T00:16:42.030Z,20.90
2022-10-28T00:19:13.191Z,19.80
2022-10-28T00:21:43.651Z,19.30
2022-10-28T00:24:14.653Z,18.80
2022-10-28T00:26:43.957Z,19.40
2022-10-28T00:29:14.163Z,18.50
2022-10-28T00:31:43.230Z,17.40
2022-10-28T00:34:13.735Z,17.40
2022-10-28T00:36:43.953Z,17.90
2022-10-28T00:39:14.349Z,16.90
2022-10-28T00:41:45.071Z,16.70
2022-10-28T00:44:47.773Z,16.80
2022-10-28T00:47:23.891Z,17.30
2022-10-28T00:49:58.297Z,15.80
2022-10-28T00:52:30.616Z,15.80
2022-10-28T00:55:01.657Z,17.00
2022-10-28T00:57:35.129Z,17.10
2022-10-28T01:00:06.779Z,16.00
2022-10-28T01:02:43.300Z,15.80
2022-10-28T01:05:14.500Z,17.30
2022-10-28T01:07:44.144Z,17.20
2022-10-28T01:10:13.420Z,16.80
2022-10-28T01:12:56.719Z,16.80
2022-10-28T01:15:37.228Z,18.10
2022-10-28T01:18:15.826Z,17.70
2022-10-28T01:21:18.823Z,17.80
2022-10-28T01:24:01.108Z,16.90
2022-10-28T01:27:06.024Z,18.90
2022-10-28T01:30:05.904Z,18.30
2022-10-28T01:32:45.436Z,17.60
2022-10-28T01:35:20.986Z,17.10
2022-10-28T01:37:55.488Z,18.60
2022-10-28T01:40:31.937Z,18.30
2022-10-28T01:43:10.765Z,18.00
2022-10-28T01:45:49.253Z,17.40
2022-10-28T01:48:22.630Z,19.00
2022-10-28T01:50:57.835Z,19.30
2022-10-28T01:53:31.295Z,18.00
2022-10-28T01:56:04.749Z,18.00
2022-10-28T01:58:36.439Z,19.00
2022-10-28T02:01:10.080Z,18.90
2022-10-28T02:03:38.743Z,17.40
2022-10-28T02:06:15.365Z,16.80
2022-10-28T02:09:19.914Z,17.80
2022-10-28T02:12:03.582Z,17.80
2022-10-28T02:14:48.119Z,17.80
2022-10-28T02:17:26.017Z,16.50
2022-10-28T02:20:07.218Z,18.50
2022-10-28T02:22:45.841Z,18.30
2022-10-28T02:25:19.837Z,16.90
2022-10-28T02:27:55.628Z,16.60
2022-10-28T02:30:28.366Z,18.50
2022-10-28T02:33:00.005Z,18.30
2022-10-28T02:35:33.089Z,17.30
2022-10-28T02:38:07.598Z,16.20
2022-10-28T02:40:39.314Z,18.10
2022-10-28T02:43:11.048Z,18.00
2022-10-28T02:45:42.986Z,17.60
2022-10-28T02:48:16.890Z,16.50
2022-10-28T02:50:54.260Z,18.20
2022-10-28T02:53:31.034Z,19.30
2022-10-28T02:56:03.944Z,17.10
2022-10-28T02:58:39.767Z,16.70
2022-10-28T03:01:08.383Z,19.10
2022-10-28T03:03:36.977Z,21.70
2022-10-28T03:06:05.951Z,20.70
2022-10-28T03:08:34.729Z,19.70
2022-10-28T03:11:03.261Z,20.30
2022-10-28T03:13:31.624Z,22.50
2022-10-28T03:16:00.043Z,21.70
2022-10-28T03:18:28.570Z,21.40
2022-10-28T03:20:59.000Z,21.80
2022-10-28T03:23:27.775Z,24.00
2022-10-28T03:26:06.933Z,22.00
2022-10-28T03:28:35.312Z,21.30
2022-10-28T03:31:04.550Z,21.70
2022-10-28T03:33:32.891Z,22.90
2022-10-28T03:36:01.240Z,21.10
2022-10-28T03:38:29.990Z,20.90
2022-10-28T03:40:58.586Z,20.80
2022-10-28T03:43:26.946Z,21.20
2022-10-28T03:45:55.611Z,21.00
2022-10-28T03:48:24.325Z,19.90
2022-10-28T03:50:56.341Z,19.80
2022-10-28T03:53:27.724Z,21.60
2022-10-28T03:55:59.752Z,21.40
2022-10-28T03:58:29.058Z,19.90
2022-10-28T04:00:58.206Z,20.60
2022-10-28T04:03:26.838Z,21.30
2022-10-28T04:05:55.306Z,21.70
2022-10-28T04:08:24.004Z,20.00
2022-10-28T04:10:52.837Z,18.70
2022-10-28T04:13:26.727Z,19.60
2022-10-28T04:15:56.007Z,21.80
2022-10-28T04:18:24.724Z,19.70
2022-10-28T04:20:53.452Z,19.30
2022-10-28T04:23:21.975Z,20.00
2022-10-28T04:25:53.679Z,20.00
2022-10-28T04:28:23.845Z,19.70
2022-10-28T04:30:52.960Z,19.30
2022-10-28T04:33:21.352Z,20.60
2022-10-28T04:35:49.686Z,21.20
2022-10-28T04:38:19.279Z,20.10
2022-10-28T04:40:48.811Z,20.00
2022-10-28T04:43:17.338Z,21.10
2022-10-28T04:45:47.087Z,21.70
2022-10-28T04:48:15.687Z,19.70
2022-10-28T04:50:44.379Z,20.10
2022-10-28T04:53:12.926Z,21.90
2022-10-28T04:55:41.250Z,22.40
2022-10-28T04:58:10.355Z,20.90
2022-10-28T05:00:38.723Z,19.30
2022-10-28T05:03:07.536Z,20.50
2022-10-28T05:05:35.830Z,22.00
2022-10-28T05:08:05.254Z,20.40
2022-10-28T05:10:34.377Z,21.70
2022-10-28T05:13:02.907Z,22.00
2022-10-28T05:15:31.196Z,22.50
2022-10-28T05:17:59.770Z,21.90
2022-10-28T05:20:28.169Z,20.60
2022-10-28T05:22:56.687Z,21.20
2022-10-28T05:25:25.437Z,21.60
2022-10-28T05:27:57.362Z,20.10
2022-10-28T05:30:27.508Z,19.00
2022-10-28T05:33:01.396Z,19.80
2022-10-28T05:35:30.677Z,21.40
2022-10-28T05:37:59.195Z,20.30
2022-10-28T05:40:27.730Z,19.20
2022-10-28T05:42:56.269Z,20.40
2022-10-28T05:45:25.199Z,21.20
2022-10-28T05:47:53.946Z,19.40
2022-10-28T05:50:22.970Z,19.40
2022-10-28T05:52:53.402Z,20.60
2022-10-28T05:55:24.136Z,22.00
2022-10-28T05:57:53.620Z,20.90
2022-10-28T06:00:24.229Z,20.20
2022-10-28T06:02:53.249Z,22.30
2022-10-28T06:05:22.103Z,22.40
2022-10-28T06:07:50.530Z,21.20
2022-10-28T06:10:19.019Z,19.90
2022-10-28T06:12:46.513Z,21.50
2022-10-28T06:15:15.233Z,21.60
2022-10-28T06:17:47.341Z,21.40
2022-10-28T06:20:17.101Z,20.40
2022-10-28T06:22:50.378Z,21.90
2022-10-28T06:25:21.671Z,23.10
2022-10-28T06:27:53.764Z,22.60
2022-10-28T06:30:24.304Z,22.40
2022-10-28T06:32:55.105Z,23.90
2022-10-28T06:35:23.677Z,23.80
2022-10-28T06:37:54.381Z,23.20
2022-10-28T06:40:24.373Z,22.70
2022-10-28T06:42:58.244Z,22.90
2022-10-28T06:45:27.211Z,23.80
2022-10-28T06:47:57.849Z,22.80
2022-10-28T06:50:27.433Z,23.10
2022-10-28T06:52:57.272Z,23.90
2022-10-28T06:55:26.448Z,25.50
2022-10-28T06:57:58.590Z,24.30
2022-10-28T07:03:06.812Z,27.00
2022-10-28T07:05:35.836Z,25.70
2022-10-28T07:08:04.789Z,24.60
2022-10-28T07:10:33.170Z,23.60
2022-10-28T07:13:01.741Z,24.70
2022-10-28T07:15:30.280Z,24.90
2022-10-28T07:17:59.716Z,24.70
2022-10-28T07:20:31.318Z,23.90
2022-10-28T07:23:02.199Z,24.60
2022-10-28T07:25:31.641Z,24.00
2022-10-28T07:28:00.900Z,24.00
2022-10-28T07:30:38.664Z,23.30
2022-10-28T07:33:25.374Z,24.20
2022-10-28T07:35:56.848Z,24.50
2022-10-28T07:38:25.788Z,22.70
2022-10-28T07:40:55.333Z,21.30
2022-10-28T07:43:24.427Z,24.10
2022-10-28T07:45:56.935Z,24.50
2022-10-28T07:48:25.543Z,24.70
2022-10-28T07:50:54.259Z,23.50
2022-10-28T07:53:24.846Z,24.20
2022-10-28T07:55:58.062Z,24.60
2022-10-28T07:58:27.143Z,24.20
2022-10-28T08:00:55.785Z,24.00
2022-10-28T08:03:34.539Z,25.70
2022-10-28T08:06:09.387Z,27.00
2022-10-28T08:11:36.637Z,24.20
2022-10-28T08:14:05.711Z,24.50
2022-10-28T08:16:34.117Z,24.90
2022-10-28T08:19:07.499Z,25.10
2022-10-28T08:21:36.233Z,23.60
2022-10-28T08:24:05.982Z,23.80
2022-10-28T08:26:34.343Z,25.00
2022-10-28T08:29:02.735Z,25.80
2022-10-28T08:31:33.044Z,24.10
2022-10-28T08:34:01.677Z,23.60
2022-10-28T08:36:30.152Z,23.00
2022-10-28T08:38:59.567Z,23.40
2022-10-28T08:41:37.941Z,24.00
2022-10-28T08:44:42.270Z,24.00
2022-10-28T08:47:24.985Z,23.40
2022-10-28T08:49:57.874Z,23.20
2022-10-28T08:52:32.617Z,23.90
2022-10-28T08:55:04.569Z,24.50
2022-10-28T08:57:38.499Z,23.00
2022-10-28T09:00:17.053Z,22.70
2022-10-28T09:02:53.630Z,23.90
2022-10-28T09:05:23.517Z,24.10
2022-10-28T09:07:53.220Z,24.10
2022-10-28T09:10:42.548Z,23.30
2022-10-28T09:13:19.237Z,23.30
2022-10-28T09:15:57.018Z,24.70
2022-10-28T09:18:36.921Z,26.10
2022-10-28T09:21:13.080Z,24.10
2022-10-28T09:23:49.339Z,24.20
2022-10-28T09:26:24.135Z,24.90
2022-10-28T09:29:00.320Z,25.90
2022-10-28T09:31:35.404Z,24.00
2022-10-28T09:34:13.910Z,22.70
2022-10-28T09:36:47.571Z,23.60
2022-10-28T09:39:25.324Z,23.70
2022-10-28T09:42:00.279Z,22.70
2022-10-28T09:44:38.861Z,21.50
2022-10-28T09:47:15.701Z,24.10
2022-10-28T09:49:45.172Z,22.90
2022-10-28T09:52:21.173Z,23.20
2022-10-28T09:54:52.300Z,20.90
2022-10-28T09:57:24.631Z,22.00
2022-10-28T09:59:54.193Z,22.40
2022-10-28T10:02:27.758Z,22.10
2022-10-28T10:04:58.428Z,21.10
2022-10-28T10:07:33.467Z,21.80
2022-10-28T10:10:10.222Z,20.60
2022-10-28T10:12:38.798Z,19.90
2022-10-28T10:15:15.524Z,19.40
2022-10-28T10:17:46.978Z,19.90
2022-10-28T10:20:17.447Z,19.90
2022-10-28T10:22:48.425Z,19.80
2022-10-28T10:25:31.453Z,19.50
2022-10-28T10:28:03.314Z,19.30
2022-10-28T10:30:34.254Z,20.00
2022-10-28T10:33:03.433Z,19.40
2022-10-28T10:35:34.237Z,17.90
2022-10-28T10:38:05.156Z,17.40
2022-10-28T10:40:36.816Z,20.30
2022-10-28T10:43:21.920Z,19.70
2022-10-28T10:45:58.699Z,17.40
2022-10-28T10:48:28.307Z,16.70
2022-10-28T10:51:04.465Z,17.80
2022-10-28T10:53:34.072Z,16.90
2022-10-28T10:56:04.501Z,16.40
2022-10-28T10:58:36.063Z,16.90
2022-10-28T11:01:07.434Z,20.40
2022-10-28T11:03:39.296Z,16.70
2022-10-28T11:06:23.514Z,18.60
2022-10-28T11:08:58.282Z,16.30
2022-10-28T11:11:34.524Z,16.50
2022-10-28T11:14:06.412Z,16.70
2022-10-28T11:16:48.004Z,14.70
2022-10-28T11:19:21.506Z,14.60
2022-10-28T11:22:02.774Z,15.90
2022-10-28T11:24:51.307Z,16.90
2022-10-28T11:27:33.641Z,16.50
2022-10-28T11:30:04.250Z,15.70
2022-10-28T11:33:01.381Z,16.00
2022-10-28T11:35:47.348Z,17.00
2022-10-28T11:38:26.758Z,16.40
2022-10-28T11:41:12.344Z,15.10
2022-10-28T11:43:54.597Z,15.80
2022-10-28T11:46:38.431Z,15.80
2022-10-28T11:49:36.535Z,19.70
2022-10-28T11:52:27.624Z,16.40
2022-10-28T11:55:12.286Z,17.20
2022-10-28T11:57:51.454Z,17.20
2022-10-28T12:00:37.573Z,17.30
2022-10-28T12:03:20.906Z,17.90
2022-10-28T12:05:54.654Z,18.70
2022-10-28T12:08:34.763Z,17.10
2022-10-28T12:11:18.613Z,16.20
2022-10-28T12:13:57.426Z,15.30
2022-10-28T12:16:32.598Z,16.80
2022-10-28T12:19:05.348Z,17.10
2022-10-28T12:21:37.515Z,17.10
2022-10-28T12:24:14.089Z,19.40
2022-10-28T12:26:45.217Z,21.90
2022-10-28T12:29:18.835Z,18.60
2022-10-28T12:31:53.406Z,16.80
2022-10-28T12:34:29.737Z,16.00
2022-10-28T12:37:02.395Z,17.20
2022-10-28T12:39:34.972Z,16.70
2022-10-28T12:42:12.288Z,16.60
2022-10-28T12:44:41.997Z,15.90
2022-10-28T12:47:19.219Z,17.20
2022-10-28T12:50:02.527Z,16.80
2022-10-28T12:52:42.805Z,15.70
2022-10-28T12:55:24.031Z,16.40
2022-10-28T12:58:00.102Z,19.60
2022-10-28T13:00:32.405Z,19.30
2022-10-28T13:03:04.177Z,28.90
2022-10-28T13:05:39.158Z,26.40
2022-10-28T13:08:25.997Z,24.20
2022-10-28T13:11:02.571Z,23.30
2022-10-28T13:13:49.313Z,22.60
2022-10-28T13:16:40.131Z,34.00
2022-10-28T13:19:36.507Z,31.00
2022-10-28T13:25:07.404Z,18.00
2022-10-28T13:30:18.469Z,16.90
2022-10-28T13:32:51.173Z,17.30
2022-10-28T13:35:25.066Z,28.60
2022-10-28T13:37:56.449Z,26.00
2022-10-28T13:41:03.235Z,17.80
2022-10-28T13:43:59.112Z,16.30
2022-10-28T13:47:14.163Z,15.40
2022-10-28T13:50:33.130Z,16.90
2022-10-28T13:53:40.531Z,16.60
2022-10-28T13:56:30.100Z,19.20
2022-10-28T13:59:04.811Z,16.80
2022-10-28T14:02:07.634Z,17.60
2022-10-28T14:04:53.332Z,17.30
2022-10-28T14:07:26.260Z,22.00
2022-10-28T14:09:58.734Z,15.60
2022-10-28T14:12:30.550Z,17.70
2022-10-28T14:15:06.880Z,17.80
2022-10-28T14:17:40.970Z,15.90
2022-10-28T14:20:28.121Z,14.90
2022-10-28T14:22:57.185Z,14.30
2022-10-28T14:25:59.187Z,15.20
2022-10-28T14:28:53.888Z,14.90
2022-10-28T14:31:42.991Z,13.70
2022-10-28T14:34:45.741Z,14.70
2022-10-28T14:37:57.842Z,14.70
2022-10-28T14:40:40.006Z,13.80
2022-10-28T14:43:35.169Z,14.30
2022-10-28T14:46:19.646Z,15.10
2022-10-28T14:48:51.317Z,14.20
2022-10-28T14:51:23.594Z,14.60
2022-10-28T14:53:58.613Z,14.90
2022-10-28T14:56:29.140Z,17.60
2022-10-28T14:59:04.367Z,16.10
2022-10-28T15:01:50.780Z,14.50
2022-10-28T15:04:22.202Z,15.20
2022-10-28T15:06:53.590Z,15.80
2022-10-28T15:09:25.007Z,14.60
2022-10-28T15:11:58.387Z,13.90
2022-10-28T15:14:30.997Z,15.10
2022-10-28T15:17:04.271Z,15.70
2022-10-28T15:19:36.046Z,17.10
2022-10-28T15:22:14.929Z,22.70
2022-10-28T15:24:53.384Z,22.20
2022-10-28T15:27:22.858Z,18.70
2022-10-28T15:29:52.131Z,16.00
2022-10-28T15:32:29.313Z,17.10
2022-10-28T15:34:58.533Z,15.90
2022-10-28T15:37:29.039Z,15.00
2022-10-28T15:40:19.767Z,15.80
2022-10-28T15:42:53.743Z,15.90
2022-10-28T15:45:27.552Z,17.20
2022-10-28T15:47:58.701Z,17.00
2022-10-28T15:50:30.776Z,29.90
2022-10-28T15:53:35.913Z,47.70
2022-10-28T15:56:24.694Z,22.10
2022-10-28T15:59:15.546Z,24.10
2022-10-28T16:01:44.168Z,24.50
2022-10-28T16:04:50.245Z,19.80
2022-10-28T16:07:21.015Z,15.80
2022-10-28T16:09:51.458Z,21.10
2022-10-28T16:12:25.813Z,19.50
2022-10-28T16:14:58.364Z,29.20
2022-10-28T16:17:32.379Z,29.60
2022-10-28T16:20:04.407Z,23.70
2022-10-28T16:22:36.711Z,18.90
2022-10-28T16:25:11.787Z,22.30
2022-10-28T16:27:40.765Z,19.70
2022-10-28T16:30:12.207Z,22.10
2022-10-28T16:32:44.253Z,17.10
2022-10-28T16:35:16.462Z,18.90
2022-10-28T16:37:47.376Z,16.90
2022-10-28T16:40:49.629Z,16.80
2022-10-28T16:43:10.800Z,16.00
2022-10-28T16:45:39.218Z,15.50
2022-10-28T16:48:12.467Z,15.10
2022-10-28T16:50:42.600Z,15.00
2022-10-28T16:53:13.937Z,15.80
2022-10-28T16:55:42.484Z,15.40
2022-10-28T16:58:11.416Z,19.70
2022-10-28T17:00:40.607Z,30.00
2022-10-28T17:03:17.033Z,27.80
2022-10-28T17:05:45.963Z,23.80
2022-10-28T17:08:36.122Z,23.40
2022-10-28T17:11:13.680Z,26.30
2022-10-28T17:13:42.534Z,23.20
2022-10-28T17:16:14.354Z,21.40
2022-10-28T17:18:43.897Z,18.10
2022-10-28T17:21:12.423Z,16.60
2022-10-28T17:23:40.956Z,20.50
2022-10-28T17:26:09.961Z,16.80
2022-10-28T17:28:40.477Z,16.10
2022-10-28T17:31:20.444Z,17.00
2022-10-28T17:33:54.800Z,16.90
2022-10-28T17:36:23.827Z,15.30
2022-10-28T17:38:52.482Z,19.80
2022-10-28T17:41:21.257Z,19.00
2022-10-28T17:43:53.149Z,15.50
2022-10-28T17:46:22.139Z,16.00
2022-10-28T17:48:50.540Z,13.50
2022-10-28T17:51:20.347Z,13.70
2022-10-28T17:53:54.352Z,16.10
2022-10-28T17:56:22.975Z,17.30
2022-10-28T17:58:53.329Z,15.70
2022-10-28T18:01:22.361Z,14.00
2022-10-28T18:03:51.395Z,18.30
2022-10-28T18:06:20.167Z,18.20
2022-10-28T18:11:26.674Z,15.40
2022-10-28T18:13:55.994Z,17.50
2022-10-28T18:16:27.505Z,17.70
2022-10-28T18:19:00.029Z,15.20
2022-10-28T18:21:28.554Z,16.50
2022-10-28T18:24:02.851Z,17.40
2022-10-28T18:26:32.639Z,16.60
2022-10-28T18:29:03.255Z,14.60
2022-10-28T18:31:34.341Z,13.90
2022-10-28T18:34:06.724Z,15.00
2022-10-28T18:36:35.555Z,15.50
2022-10-28T18:39:07.072Z,19.40
2022-10-28T18:41:40.779Z,18.00
2022-10-28T18:44:13.405Z,21.40
2022-10-28T18:46:44.596Z,18.90
2022-10-28T18:49:13.920Z,16.70
2022-10-28T18:51:42.431Z,17.00
2022-10-28T18:54:10.826Z,23.20
2022-10-28T18:56:40.260Z,19.30
2022-10-28T18:59:11.168Z,23.80
2022-10-28T19:01:45.884Z,26.20
2022-10-28T19:04:14.857Z,21.90
2022-10-28T19:06:43.396Z,23.60
2022-10-28T19:09:13.281Z,17.50
2022-10-28T19:11:41.853Z,20.00
2022-10-28T19:14:10.552Z,22.60
2022-10-28T19:16:39.099Z,21.00
2022-10-28T19:19:07.861Z,23.70
2022-10-28T19:21:36.686Z,21.10
2022-10-28T19:24:06.715Z,22.80
2022-10-28T19:26:35.966Z,20.40
2022-10-28T19:29:05.660Z,17.10
2022-10-28T19:31:38.034Z,15.20
2022-10-28T19:34:06.581Z,21.40
2022-10-28T19:36:35.103Z,18.40
2022-10-28T19:39:04.441Z,15.80
2022-10-28T19:41:33.306Z,14.60
2022-10-28T19:44:03.390Z,14.60
2022-10-28T19:46:34.888Z,15.10
2022-10-28T19:49:05.522Z,15.10
2022-10-28T19:51:35.956Z,15.30
2022-10-28T19:54:07.052Z,13.90
2022-10-28T19:56:36.446Z,18.10
2022-10-28T19:59:06.303Z,16.50
2022-10-28T20:01:37.025Z,16.30
2022-10-28T20:04:06.815Z,15.50
2022-10-28T20:06:38.160Z,16.60
2022-10-28T20:09:06.969Z,17.80
2022-10-28T20:11:37.458Z,16.10
2022-10-28T20:14:09.158Z,15.90
2022-10-28T20:16:41.743Z,15.60
2022-10-28T20:19:10.637Z,18.30
2022-10-28T20:21:39.765Z,21.90
2022-10-28T20:24:08.990Z,21.60
2022-10-28T20:26:38.918Z,30.80
2022-10-28T20:29:09.132Z,56.30
2022-10-28T20:31:38.499Z,44.90
2022-10-28T20:34:08.035Z,34.00
2022-10-28T20:36:39.107Z,21.80
2022-10-28T20:39:12.415Z,18.00
2022-10-28T20:41:43.120Z,16.10
2022-10-28T20:44:13.940Z,14.40
2022-10-28T20:46:44.413Z,13.80
2022-10-28T20:49:15.497Z,14.00
2022-10-28T20:51:43.921Z,15.00
2022-10-28T20:54:12.535Z,17.80
2022-10-28T20:56:41.650Z,14.40
2022-10-28T20:59:10.504Z,14.60
2022-10-28T21:01:42.365Z,14.30
2022-10-28T21:04:11.732Z,14.00
2022-10-28T21:06:41.727Z,13.60
2022-10-28T21:09:11.315Z,14.40
2022-10-28T21:11:39.799Z,16.20
2022-10-28T21:14:08.394Z,15.80
2022-10-28T21:16:37.838Z,15.40
2022-10-28T21:19:09.308Z,15.30
2022-10-28T21:21:37.684Z,17.30
2022-10-28T21:24:07.364Z,16.80
2022-10-28T21:26:35.686Z,16.20
2022-10-28T21:29:04.249Z,14.80
2022-10-28T21:31:32.635Z,14.30
2022-10-28T21:34:04.395Z,14.70
2022-10-28T21:36:35.846Z,13.50
2022-10-28T21:39:04.671Z,13.30
2022-10-28T21:41:34.115Z,14.10
2022-10-28T21:44:05.955Z,13.60
2022-10-28T21:46:34.441Z,13.00
2022-10-28T21:49:02.819Z,12.60
2022-10-28T21:51:31.205Z,14.10
2022-10-28T21:53:59.811Z,13.50
2022-10-28T21:56:28.154Z,13.40
2022-10-28T21:58:56.683Z,12.80
2022-10-28T22:01:25.195Z,14.90
2022-10-28T22:03:56.032Z,14.60
2022-10-28T22:06:24.635Z,14.30
2022-10-28T22:08:53.870Z,13.30
2022-10-28T22:11:23.764Z,13.60
2022-10-28T22:13:56.721Z,14.00
2022-10-28T22:16:29.644Z,13.70
2022-10-28T22:18:59.705Z,13.60
2022-10-28T22:21:30.801Z,13.60
2022-10-28T22:23:59.508Z,15.10
2022-10-28T22:26:30.041Z,13.40
2022-10-28T22:28:59.703Z,13.50
2022-10-28T22:31:30.763Z,13.10
2022-10-28T22:34:01.903Z,15.10
2022-10-28T22:36:30.685Z,13.70
2022-10-28T22:38:59.523Z,12.60
2022-10-28T22:41:30.107Z,14.00
2022-10-28T22:44:00.562Z,14.30
2022-10-28T22:46:35.885Z,13.50
2022-10-28T22:49:04.612Z,13.20
2022-10-28T22:51:33.749Z,12.40
2022-10-28T22:54:02.354Z,13.40
2022-10-28T22:56:31.252Z,14.00
2022-10-28T22:59:01.414Z,13.10
2022-10-28T23:01:30.337Z,12.80
2022-10-28T23:04:00.363Z,13.70
2022-10-28T23:06:32.497Z,13.40
2022-10-28T23:09:01.167Z,12.70
2022-10-28T23:11:29.966Z,13.60
2022-10-28T23:13:58.614Z,13.00
2022-10-28T23:16:27.130Z,12.80
2022-10-28T23:18:56.061Z,11.60
2022-10-28T23:21:25.622Z,12.20
2022-10-28T23:23:55.386Z,12.70
2022-10-28T23:26:24.879Z,13.00
2022-10-28T23:28:55.307Z,12.70
2022-10-28T23:31:24.299Z,12.10
2022-10-28T23:33:57.576Z,12.60
2022-10-28T23:36:26.276Z,12.60
2022-10-28T23:38:57.873Z,12.40
2022-10-28T23:41:26.805Z,11.50
2022-10-28T23:43:55.372Z,12.30
2022-10-28T23:46:24.543Z,12.50
2022-10-28T23:48:53.266Z,12.00
2022-10-28T23:51:21.675Z,12.50
2022-10-28T23:53:50.462Z,12.00
2022-10-28T23:56:18.962Z,12.30
2022-10-28T23:58:47.406Z,12.60
